Time;durP1;ratioP1;P1;durP2;ratioP2;P2;SDS_P1;SDS_P2;PMS_P1;PMS_P2;Temp;Humidity;BMP_temperature;BMP_pressure;BME280_temperature;BME280_humidity;BME280_pressure;Samples;Min_cycle;Max_cycle;Signal;HPM_P1;HPM_P2
2021/11/10 00:00:11;;;;;;;34.92;21.98;;;4.10;99.90;;;;;;2096899;28;20499;-73
2021/11/10 00:01:15;;;;;;;33.03;21.40;;;4.10;99.90;;;;;;2097019;28;20071;-73
2021/11/10 00:02:15;;;;;;;31.45;21.25;;;4.10;99.90;;;;;;2105883;28;20028;-72
2021/11/10 00:03:16;;;;;;;32.83;21.27;;;4.10;99.90;;;;;;2105969;28;20051;-72
2021/11/10 00:04:18;;;;;;;31.63;21.13;;;4.10;99.90;;;;;;2105846;28;20443;-73
2021/11/10 00:05:18;;;;;;;32.58;22.08;;;4.10;99.90;;;;;;2105910;28;20524;-73
2021/11/10 00:06:19;;;;;;;32.55;21.10;;;4.10;99.90;;;;;;2105781;28;20028;-73
2021/11/10 00:07:20;;;;;;;32.22;21.85;;;4.10;99.90;;;;;;2105799;28;20115;-73
2021/11/10 00:08:20;;;;;;;33.42;22.08;;;4.10;99.90;;;;;;2105180;28;20106;-73
2021/11/10 00:09:21;;;;;;;34.72;22.60;;;4.10;99.90;;;;;;2105162;28;20057;-73
2021/11/10 00:10:22;;;;;;;34.92;23.30;;;4.10;99.90;;;;;;2105032;28;20038;-72
2021/11/10 00:11:22;;;;;;;34.00;22.08;;;4.00;99.90;;;;;;2104971;28;20066;-73
2021/11/10 00:12:23;;;;;;;32.75;23.13;;;4.10;99.90;;;;;;2105817;28;20426;-73
2021/11/10 00:13:25;;;;;;;32.33;22.20;;;4.00;99.90;;;;;;2105822;28;20032;-73
2021/11/10 00:14:26;;;;;;;34.90;23.40;;;4.00;99.90;;;;;;2105719;28;20032;-73
2021/11/10 00:15:26;;;;;;;35.00;23.10;;;4.00;99.90;;;;;;2105832;28;20024;-72
2021/11/10 00:16:28;;;;;;;33.53;23.42;;;4.00;99.90;;;;;;2105880;28;20035;-72
2021/11/10 00:17:29;;;;;;;33.63;22.00;;;4.00;99.90;;;;;;2105112;28;20040;-72
2021/11/10 00:18:29;;;;;;;33.83;22.48;;;4.00;99.90;;;;;;2105530;28;20123;-72
2021/11/10 00:19:30;;;;;;;31.63;21.60;;;4.00;99.90;;;;;;2105826;28;20110;-72
2021/11/10 00:20:30;;;;;;;33.25;21.60;;;4.00;99.90;;;;;;2105479;28;20110;-72
2021/11/10 00:21:31;;;;;;;33.65;22.50;;;4.00;99.90;;;;;;2105530;28;20059;-72
2021/11/10 00:22:32;;;;;;;32.63;21.73;;;4.00;99.90;;;;;;2105024;28;20050;-72
2021/11/10 00:23:34;;;;;;;33.05;22.88;;;4.00;99.90;;;;;;2105189;28;20138;-72
2021/11/10 00:24:34;;;;;;;33.97;22.70;;;4.00;99.90;;;;;;2105647;28;20047;-71
2021/11/10 00:25:35;;;;;;;32.78;22.20;;;3.90;99.90;;;;;;2105106;28;20031;-72
2021/11/10 00:26:36;;;;;;;32.55;21.88;;;3.90;99.90;;;;;;2105130;28;20016;-71
2021/11/10 00:27:37;;;;;;;34.85;23.25;;;3.90;99.90;;;;;;2104840;28;20507;-72
2021/11/10 00:28:38;;;;;;;33.15;22.02;;;3.90;99.90;;;;;;2096650;28;20020;-72
2021/11/10 00:29:39;;;;;;;33.72;22.98;;;3.90;99.90;;;;;;2096894;28;20039;-72
2021/11/10 00:30:40;;;;;;;35.17;22.17;;;3.90;99.90;;;;;;2096199;28;20021;-72
2021/11/10 00:31:40;;;;;;;31.48;22.00;;;3.80;99.90;;;;;;2096314;28;20070;-72
2021/11/10 00:32:41;;;;;;;33.45;22.45;;;3.90;99.90;;;;;;2096596;28;20039;-72
2021/11/10 00:33:41;;;;;;;36.65;23.63;;;3.90;99.90;;;;;;2105103;28;20066;-72
2021/11/10 00:34:42;;;;;;;36.22;24.02;;;3.90;99.90;;;;;;2105048;28;20032;-72
2021/11/10 00:35:44;;;;;;;38.28;24.33;;;3.90;99.90;;;;;;2105086;28;20024;-72
2021/11/10 00:36:45;;;;;;;37.65;24.25;;;3.90;99.90;;;;;;2096740;28;20032;-72
2021/11/10 00:37:46;;;;;;;38.22;24.48;;;4.00;99.90;;;;;;2105207;28;20043;-72
2021/11/10 00:38:47;;;;;;;36.65;23.75;;;4.00;99.90;;;;;;2105376;28;20114;-72
2021/11/10 00:39:48;;;;;;;35.58;23.70;;;3.90;99.90;;;;;;2097305;28;20036;-73
2021/11/10 00:40:48;;;;;;;37.67;24.90;;;3.90;99.90;;;;;;2105347;28;20028;-72
2021/11/10 00:41:49;;;;;;;38.30;24.70;;;3.90;99.90;;;;;;2097318;28;20083;-72
2021/11/10 00:42:49;;;;;;;34.65;23.15;;;3.90;99.90;;;;;;2097309;28;20127;-72
2021/11/10 00:43:50;;;;;;;35.90;23.90;;;3.90;99.90;;;;;;2096925;28;20058;-72
2021/11/10 00:44:53;;;;;;;34.65;23.88;;;3.90;99.90;;;;;;2096943;28;20025;-73
2021/11/10 00:45:53;;;;;;;37.80;24.40;;;3.90;99.90;;;;;;2105032;28;20487;-72
2021/11/10 00:46:55;;;;;;;39.78;24.27;;;3.90;99.90;;;;;;2104908;28;20024;-72
2021/11/10 00:47:56;;;;;;;37.67;23.83;;;3.80;99.90;;;;;;2105137;28;20054;-72
2021/11/10 00:48:56;;;;;;;34.55;23.15;;;3.80;99.90;;;;;;2105068;28;20028;-72
2021/11/10 00:49:58;;;;;;;37.85;24.75;;;3.80;99.90;;;;;;2105007;28;20097;-72
2021/11/10 00:50:59;;;;;;;38.50;25.15;;;3.80;99.90;;;;;;2105106;28;20054;-72
2021/11/10 00:52:00;;;;;;;37.30;24.02;;;3.80;99.90;;;;;;2104643;28;20034;-73
2021/11/10 00:53:02;;;;;;;38.30;24.92;;;3.80;99.90;;;;;;2105027;28;20087;-72
2021/11/10 00:54:03;;;;;;;39.33;25.45;;;3.80;99.90;;;;;;2105783;28;20475;-73
2021/11/10 00:55:06;;;;;;;39.58;25.80;;;3.80;99.90;;;;;;2106233;28;20059;-72
2021/11/10 00:56:06;;;;;;;37.88;25.73;;;3.80;99.90;;;;;;2106227;28;20024;-72
2021/11/10 00:57:07;;;;;;;39.05;26.67;;;3.80;99.90;;;;;;2105495;28;20032;-73
2021/11/10 00:58:09;;;;;;;39.42;25.90;;;3.80;99.90;;;;;;2105668;28;20086;-72
2021/11/10 00:59:10;;;;;;;40.90;26.80;;;3.80;99.90;;;;;;2106112;28;20107;-72
2021/11/10 01:00:11;;;;;;;39.30;26.13;;;3.80;99.90;;;;;;2105482;28;20093;-72
2021/11/10 01:01:12;;;;;;;37.33;25.98;;;3.70;99.90;;;;;;2104968;28;20039;-73
2021/11/10 01:02:13;;;;;;;38.83;26.20;;;3.80;99.90;;;;;;2105147;28;20066;-73
2021/11/10 01:03:14;;;;;;;39.20;25.73;;;3.70;99.90;;;;;;2097141;28;20094;-73
2021/11/10 01:04:15;;;;;;;40.08;26.77;;;3.70;99.90;;;;;;2105537;28;20396;-73
2021/11/10 01:05:16;;;;;;;38.65;25.73;;;3.70;99.90;;;;;;2106021;28;20043;-73
2021/11/10 01:06:17;;;;;;;35.38;25.13;;;3.70;99.90;;;;;;2106082;28;20028;-73
2021/11/10 01:07:18;;;;;;;39.40;25.63;;;3.70;99.90;;;;;;2106077;28;20040;-73
2021/11/10 01:08:19;;;;;;;40.67;25.48;;;3.60;99.90;;;;;;2105144;28;20027;-73
2021/11/10 01:09:22;;;;;;;38.50;25.13;;;3.60;99.90;;;;;;2105472;28;20043;-73
2021/11/10 01:10:24;;;;;;;38.42;25.45;;;3.60;99.90;;;;;;2105608;28;20470;-73
2021/11/10 01:11:24;;;;;;;41.78;26.38;;;3.60;99.90;;;;;;2097047;28;20042;-73
2021/11/10 01:12:26;;;;;;;38.70;26.48;;;3.60;99.90;;;;;;2097102;28;20105;-73
2021/11/10 01:13:27;;;;;;;40.92;26.30;;;3.60;99.90;;;;;;2096959;28;20498;-73
2021/11/10 01:14:30;;;;;;;39.55;26.58;;;3.60;99.90;;;;;;2097324;28;20054;-73
2021/11/10 01:15:34;;;;;;;37.53;25.38;;;3.60;99.90;;;;;;2096988;28;20030;-74
2021/11/10 01:16:34;;;;;;;39.25;25.23;;;3.50;99.90;;;;;;2097278;28;20037;-74
2021/11/10 01:17:37;;;;;;;42.78;26.75;;;3.50;99.90;;;;;;2105346;28;20034;-73
2021/11/10 01:18:37;;;;;;;41.05;26.80;;;3.50;99.90;;;;;;2096971;28;20158;-74
2021/11/10 01:19:41;;;;;;;38.60;26.00;;;3.50;99.90;;;;;;2089508;28;20035;-74
2021/11/10 01:20:45;;;;;;;38.63;25.35;;;3.50;99.90;;;;;;2096520;28;20029;-73
2021/11/10 01:21:45;;;;;;;38.53;25.67;;;3.50;99.90;;;;;;2105108;28;20040;-73
2021/11/10 01:22:46;;;;;;;40.08;26.27;;;3.50;99.90;;;;;;2105750;28;20430;-74
2021/11/10 01:23:48;;;;;;;39.38;26.25;;;3.50;99.90;;;;;;2097253;28;20028;-74
2021/11/10 01:24:49;;;;;;;39.90;25.90;;;3.40;99.90;;;;;;2097511;28;20020;-73
2021/11/10 01:25:50;;;;;;;35.92;25.42;;;3.40;99.90;;;;;;2097019;28;20032;-74
2021/11/10 01:26:51;;;;;;;40.67;26.80;;;3.40;99.90;;;;;;2088756;28;20048;-74
2021/11/10 01:27:51;;;;;;;37.15;25.92;;;3.40;99.90;;;;;;2097524;28;20508;-73
2021/11/10 01:28:52;;;;;;;40.28;26.02;;;3.30;99.90;;;;;;2105142;28;20128;-74
2021/11/10 01:29:53;;;;;;;39.85;26.05;;;3.30;99.90;;;;;;2097083;28;20103;-73
2021/11/10 01:30:54;;;;;;;39.78;25.27;;;3.30;99.90;;;;;;2096656;28;20986;-73
2021/11/10 01:31:58;;;;;;;41.05;26.40;;;3.30;99.90;;;;;;2097110;28;20067;-73
2021/11/10 01:33:01;;;;;;;40.70;26.35;;;3.20;99.90;;;;;;2097067;28;20020;-73
2021/11/10 01:34:07;;;;;;;39.38;26.05;;;3.20;99.90;;;;;;2089052;28;20523;-73
2021/11/10 01:35:09;;;;;;;39.30;25.83;;;3.20;99.90;;;;;;2097837;28;20490;-74
2021/11/10 01:36:09;;;;;;;37.00;25.25;;;3.20;99.90;;;;;;2105379;28;20036;-73
2021/11/10 01:37:10;;;;;;;39.22;26.35;;;3.20;99.90;;;;;;2096805;28;20024;-73
2021/11/10 01:38:11;;;;;;;39.42;26.20;;;3.20;99.90;;;;;;2088521;28;20040;-73
2021/11/10 01:39:12;;;;;;;38.63;26.73;;;3.20;99.90;;;;;;2096763;28;20488;-73
2021/11/10 01:40:15;;;;;;;38.60;26.75;;;3.20;99.90;;;;;;2104605;28;20507;-73
2021/11/10 01:41:16;;;;;;;38.15;25.55;;;3.20;99.90;;;;;;2104017;28;20118;-74
2021/11/10 01:42:18;;;;;;;37.95;25.38;;;3.20;99.90;;;;;;2096339;28;20032;-73
2021/11/10 01:43:23;;;;;;;35.97;24.75;;;3.20;99.90;;;;;;2097122;28;20104;-73
2021/11/10 01:44:27;;;;;;;36.28;24.45;;;3.10;99.90;;;;;;2097126;28;20021;-73
2021/11/10 01:45:29;;;;;;;37.70;25.65;;;3.20;99.90;;;;;;2104904;28;20553;-72
2021/11/10 01:46:32;;;;;;;38.35;25.52;;;3.10;99.90;;;;;;2096571;28;20453;-72
2021/11/10 01:47:33;;;;;;;39.38;25.48;;;3.10;99.90;;;;;;2104568;28;20099;-72
2021/11/10 01:48:37;;;;;;;40.33;26.85;;;3.10;99.90;;;;;;2104437;28;20051;-72
2021/11/10 01:49:42;;;;;;;41.40;26.65;;;3.10;99.90;;;;;;2096471;28;20515;-72
2021/11/10 01:50:44;;;;;;;41.28;27.08;;;3.10;99.90;;;;;;2096323;28;20020;-73
2021/11/10 01:51:49;;;;;;;43.97;29.80;;;3.10;99.90;;;;;;2104240;28;20091;-72
2021/11/10 01:52:50;;;;;;;41.75;27.98;;;3.20;99.90;;;;;;2096698;28;20062;-71
2021/11/10 01:53:52;;;;;;;41.80;28.02;;;3.20;99.90;;;;;;2096324;28;20056;-72
2021/11/10 01:54:54;;;;;;;42.33;28.20;;;3.20;99.90;;;;;;2104694;28;20032;-71
2021/11/10 01:55:59;;;;;;;37.47;26.50;;;3.20;99.90;;;;;;2104609;28;20035;-73
2021/11/10 01:57:02;;;;;;;37.70;26.08;;;3.20;99.90;;;;;;2096482;28;20025;-72
2021/11/10 01:58:03;;;;;;;38.15;27.00;;;3.20;99.90;;;;;;2096529;28;20028;-72
2021/11/10 01:59:08;;;;;;;40.20;26.95;;;3.10;99.90;;;;;;2096780;28;20031;-72
2021/11/10 02:00:14;;;;;;;41.90;27.00;;;3.10;99.90;;;;;;2104755;28;20103;-72
2021/11/10 02:01:22;;;;;;;39.00;26.23;;;3.10;99.90;;;;;;2104510;28;20491;-72
2021/11/10 02:02:26;;;;;;;38.95;25.70;;;3.10;99.90;;;;;;2097279;28;20424;-73
2021/11/10 02:03:33;;;;;;;37.53;25.50;;;3.10;99.90;;;;;;2105128;28;20101;-72
2021/11/10 02:04:51;;;;;;;36.90;25.08;;;3.00;99.90;;;;;;2098947;28;20502;-72
2021/11/10 02:05:53;;;;;;;38.30;25.92;;;3.00;99.90;;;;;;2096528;28;20024;-72
2021/11/10 02:07:11;;;;;;;45.45;27.98;;;3.00;99.90;;;;;;2090273;28;20059;-72
2021/11/10 02:08:12;;;;;;;42.45;28.58;;;3.00;99.90;;;;;;2090484;28;20419;-73
2021/11/10 02:09:14;;;;;;;45.10;30.17;;;3.00;99.90;;;;;;2096432;28;20032;-72
2021/11/10 02:10:20;;;;;;;46.58;31.02;;;3.00;99.90;;;;;;2096628;28;20487;-73
2021/11/10 02:11:20;;;;;;;46.08;30.08;;;3.10;99.90;;;;;;2088611;28;20025;-73
2021/11/10 02:12:31;;;;;;;47.13;30.05;;;3.10;99.90;;;;;;2091100;28;20025;-73
2021/11/10 02:13:33;;;;;;;42.10;28.77;;;3.00;99.90;;;;;;2096672;28;20033;-73
2021/11/10 02:14:34;;;;;;;43.42;29.25;;;3.00;99.90;;;;;;2096519;28;20114;-73
2021/11/10 02:15:37;;;;;;;44.00;29.58;;;3.00;99.90;;;;;;2096673;28;20039;-73
2021/11/10 02:16:40;;;;;;;42.28;28.40;;;3.00;99.90;;;;;;2097051;28;20534;-73
2021/11/10 02:17:47;;;;;;;41.03;27.13;;;3.00;99.90;;;;;;2096909;28;20036;-73
2021/11/10 02:18:48;;;;;;;41.53;27.73;;;3.00;99.90;;;;;;2097181;28;20107;-73
2021/11/10 02:19:52;;;;;;;43.35;28.55;;;3.00;99.90;;;;;;2096934;28;20090;-72
2021/11/10 02:21:07;;;;;;;45.00;28.65;;;2.90;99.90;;;;;;2097862;28;20040;-73
2021/11/10 02:22:08;;;;;;;49.45;29.27;;;2.90;99.90;;;;;;2099777;28;20687;-73
2021/11/10 02:23:08;;;;;;;45.20;29.27;;;2.90;99.90;;;;;;2098301;28;20043;-72
2021/11/10 02:24:09;;;;;;;46.13;29.65;;;2.90;99.90;;;;;;2097699;28;20017;-72
2021/11/10 02:25:12;;;;;;;42.53;27.98;;;2.90;99.90;;;;;;2106238;28;20107;-72
2021/11/10 02:26:15;;;;;;;45.45;28.25;;;2.90;99.90;;;;;;2106052;28;20020;-72
2021/11/10 02:27:22;;;;;;;43.88;28.65;;;2.90;99.90;;;;;;2097578;28;20032;-71
2021/11/10 02:28:22;;;;;;;42.05;27.70;;;2.90;99.90;;;;;;2098620;28;20020;-72
2021/11/10 02:29:29;;;;;;;43.38;27.88;;;2.90;99.90;;;;;;2106386;28;20411;-72
2021/11/10 02:30:30;;;;;;;44.00;28.63;;;2.80;99.90;;;;;;2098333;28;20021;-73
2021/11/10 02:31:35;;;;;;;41.67;27.23;;;2.80;99.90;;;;;;2097771;28;20047;-73
2021/11/10 02:32:36;;;;;;;40.55;26.75;;;2.80;99.90;;;;;;2098841;28;20025;-73
2021/11/10 02:33:37;;;;;;;42.72;27.35;;;2.80;99.90;;;;;;2098114;28;20531;-72
2021/11/10 02:34:39;;;;;;;40.40;27.20;;;2.70;99.90;;;;;;2098246;28;20043;-73
2021/11/10 02:35:39;;;;;;;41.10;26.90;;;2.70;99.90;;;;;;2098091;28;20039;-72
2021/11/10 02:36:41;;;;;;;40.78;27.05;;;2.70;99.90;;;;;;2098279;28;20056;-73
2021/11/10 02:37:42;;;;;;;40.05;26.13;;;2.70;99.90;;;;;;2106380;28;20506;-72
2021/11/10 02:38:43;;;;;;;39.00;26.10;;;2.70;99.90;;;;;;2106087;28;20060;-71
2021/11/10 02:39:44;;;;;;;40.47;26.48;;;2.70;99.90;;;;;;2097658;28;20032;-70
2021/11/10 02:40:45;;;;;;;41.20;26.63;;;2.70;99.90;;;;;;2105630;28;20553;-71
2021/11/10 02:41:47;;;;;;;39.70;26.25;;;2.70;99.90;;;;;;2105654;28;20066;-72
2021/11/10 02:42:49;;;;;;;39.50;26.77;;;2.60;99.90;;;;;;2105852;28;20123;-72
2021/11/10 02:43:50;;;;;;;41.42;26.50;;;2.60;99.90;;;;;;2105902;28;20064;-71
2021/11/10 02:44:52;;;;;;;41.67;26.90;;;2.60;99.90;;;;;;2106069;28;20081;-71
2021/11/10 02:45:54;;;;;;;39.60;26.30;;;2.60;99.90;;;;;;2105865;28;20049;-71
2021/11/10 02:46:54;;;;;;;40.25;27.10;;;2.60;99.90;;;;;;2106054;28;20024;-72
2021/11/10 02:47:57;;;;;;;41.22;26.88;;;2.60;99.90;;;;;;2106830;28;20471;-72
2021/11/10 02:48:57;;;;;;;39.47;26.58;;;2.60;99.90;;;;;;2106051;28;20027;-71
2021/11/10 02:49:58;;;;;;;40.65;27.00;;;2.60;99.90;;;;;;2106122;28;20703;-73
2021/11/10 02:50:58;;;;;;;39.35;27.23;;;2.60;99.90;;;;;;2105571;28;20043;-73
2021/11/10 02:52:03;;;;;;;42.40;27.63;;;2.60;99.90;;;;;;2106035;28;20024;-73
2021/11/10 02:53:04;;;;;;;38.92;26.23;;;2.60;99.90;;;;;;2106736;28;20032;-73
2021/11/10 02:54:08;;;;;;;40.80;26.63;;;2.50;99.90;;;;;;2106596;28;20024;-75
2021/11/10 02:55:09;;;;;;;39.50;26.85;;;2.50;99.90;;;;;;2105885;28;20036;-73
2021/11/10 02:56:10;;;;;;;39.70;26.15;;;2.50;99.90;;;;;;2105929;28;20035;-75
2021/11/10 02:57:11;;;;;;;38.45;26.10;;;2.50;99.90;;;;;;2106535;28;20038;-73
2021/11/10 02:58:12;;;;;;;38.85;26.25;;;2.50;99.90;;;;;;2106592;28;20500;-73
2021/11/10 02:59:13;;;;;;;42.00;26.80;;;2.60;99.90;;;;;;2106471;28;20060;-73
2021/11/10 03:00:13;;;;;;;41.20;27.17;;;2.60;99.90;;;;;;2105616;28;20138;-73
2021/11/10 03:01:18;;;;;;;41.13;26.70;;;2.60;99.90;;;;;;2096573;28;20056;-73
2021/11/10 03:02:26;;;;;;;36.90;25.92;;;2.50;99.90;;;;;;2097835;28;20036;-71
2021/11/10 03:03:28;;;;;;;38.78;25.92;;;2.50;99.90;;;;;;2105814;28;20043;-72
2021/11/10 03:04:41;;;;;;;38.95;24.55;;;2.50;99.90;;;;;;2097432;28;20411;-71
2021/11/10 03:05:47;;;;;;;37.13;24.90;;;2.50;99.90;;;;;;2099149;28;20051;-71
2021/11/10 03:06:48;;;;;;;37.67;24.52;;;2.50;99.90;;;;;;2098074;28;20158;-71
2021/11/10 03:07:49;;;;;;;35.65;24.55;;;2.50;99.90;;;;;;2105851;28;20024;-71
2021/11/10 03:08:50;;;;;;;39.33;26.10;;;2.50;99.90;;;;;;2105564;28;20028;-71
2021/11/10 03:09:51;;;;;;;36.97;25.30;;;2.50;99.90;;;;;;2105821;28;20036;-71
2021/11/10 03:10:59;;;;;;;36.25;25.00;;;2.50;99.90;;;;;;2105261;28;20024;-71
2021/11/10 03:12:01;;;;;;;40.13;26.52;;;2.50;99.90;;;;;;2105505;28;20024;-71
2021/11/10 03:13:04;;;;;;;37.55;25.55;;;2.50;99.90;;;;;;2097868;28;20118;-71
2021/11/10 03:14:05;;;;;;;37.50;25.30;;;2.50;99.90;;;;;;2097287;28;20041;-71
2021/11/10 03:15:07;;;;;;;39.38;25.13;;;2.50;99.90;;;;;;2105850;28;20062;-73
2021/11/10 03:16:08;;;;;;;36.80;25.42;;;2.50;99.90;;;;;;2097525;28;20435;-72
2021/11/10 03:17:11;;;;;;;39.10;25.83;;;2.50;99.90;;;;;;2097373;28;20036;-72
2021/11/10 03:18:13;;;;;;;41.15;26.13;;;2.40;99.90;;;;;;2105813;28;20020;-72
2021/11/10 03:19:14;;;;;;;40.72;25.98;;;2.40;99.90;;;;;;2105610;28;20035;-72
2021/11/10 03:20:15;;;;;;;39.65;26.55;;;2.50;99.90;;;;;;2097220;28;20033;-72
2021/11/10 03:21:18;;;;;;;39.40;25.55;;;2.40;99.90;;;;;;2104976;28;20105;-72
2021/11/10 03:22:21;;;;;;;40.17;26.33;;;2.40;99.90;;;;;;2105636;28;20024;-72
2021/11/10 03:23:24;;;;;;;40.03;26.60;;;2.40;99.90;;;;;;2097306;28;20200;-73
2021/11/10 03:24:26;;;;;;;44.13;27.45;;;2.50;99.90;;;;;;2097588;28;20063;-73
2021/11/10 03:25:27;;;;;;;43.50;28.10;;;2.40;99.90;;;;;;2088944;28;20025;-72
2021/11/10 03:26:28;;;;;;;46.10;28.92;;;2.50;99.90;;;;;;2097314;28;20024;-72
2021/11/10 03:27:30;;;;;;;46.88;29.88;;;2.50;99.90;;;;;;2105635;28;20024;-72
2021/11/10 03:28:35;;;;;;;46.50;28.63;;;2.60;99.90;;;;;;2105690;28;20028;-73
2021/11/10 03:29:38;;;;;;;48.80;29.67;;;2.50;99.90;;;;;;2105482;28;20051;-72
2021/11/10 03:30:41;;;;;;;46.83;28.63;;;2.50;99.90;;;;;;2096648;28;20025;-72
2021/11/10 03:31:43;;;;;;;43.97;28.73;;;2.60;99.90;;;;;;2096845;28;20021;-73
2021/11/10 03:32:46;;;;;;;43.30;28.45;;;2.60;99.90;;;;;;2097719;28;20032;-73
2021/11/10 03:33:50;;;;;;;48.05;29.48;;;2.60;99.90;;;;;;2097940;28;20093;-72
2021/11/10 03:34:51;;;;;;;47.47;29.83;;;2.60;99.90;;;;;;2097304;28;20473;-73
2021/11/10 03:35:55;;;;;;;47.30;29.27;;;2.60;99.90;;;;;;2098414;28;20032;-72
2021/11/10 03:36:56;;;;;;;47.58;28.10;;;2.60;99.90;;;;;;2089362;28;20087;-71
2021/11/10 03:37:57;;;;;;;43.17;28.25;;;2.60;99.90;;;;;;2097403;28;20036;-72
2021/11/10 03:39:00;;;;;;;45.53;27.20;;;2.60;99.90;;;;;;2097818;28;20032;-72
2021/11/10 03:40:03;;;;;;;43.50;28.08;;;2.60;99.90;;;;;;2106483;28;20036;-73
2021/11/10 03:41:05;;;;;;;43.60;27.48;;;2.50;99.90;;;;;;2098470;28;20036;-72
2021/11/10 03:42:09;;;;;;;42.72;27.00;;;2.50;99.90;;;;;;2098551;28;20032;-72
2021/11/10 03:43:11;;;;;;;43.53;27.27;;;2.50;99.90;;;;;;2098585;28;20020;-72
2021/11/10 03:44:12;;;;;;;41.67;27.27;;;2.50;99.90;;;;;;2098531;28;20109;-72
2021/11/10 03:45:15;;;;;;;43.28;26.85;;;2.50;99.90;;;;;;2099163;28;20033;-73
2021/11/10 03:46:17;;;;;;;41.33;27.20;;;2.50;99.90;;;;;;2097907;28;20038;-72
2021/11/10 03:47:18;;;;;;;41.90;27.38;;;2.50;99.90;;;;;;2106426;28;20052;-73
2021/11/10 03:48:18;;;;;;;42.33;26.90;;;2.50;99.90;;;;;;2105354;28;20027;-72
2021/11/10 03:49:20;;;;;;;44.08;28.27;;;2.40;99.90;;;;;;2097217;28;20033;-72
2021/11/10 03:50:21;;;;;;;43.22;27.52;;;2.40;99.90;;;;;;2105712;28;20023;-71
2021/11/10 03:51:23;;;;;;;43.05;27.10;;;2.40;99.90;;;;;;2104841;28;20507;-72
2021/11/10 03:52:24;;;;;;;44.85;28.08;;;2.40;99.90;;;;;;2105860;28;20017;-72
2021/11/10 03:53:25;;;;;;;42.95;27.83;;;2.40;99.90;;;;;;2096973;28;20055;-72
2021/11/10 03:54:26;;;;;;;41.47;27.50;;;2.40;99.90;;;;;;2105760;28;20027;-71
2021/11/10 03:55:35;;;;;;;42.35;27.38;;;2.30;99.90;;;;;;2097326;28;20768;-71
2021/11/10 03:56:36;;;;;;;44.47;27.00;;;2.40;99.90;;;;;;2091296;28;20578;-71
2021/11/10 03:57:36;;;;;;;43.70;27.58;;;2.30;99.90;;;;;;2097275;28;20020;-71
2021/11/10 03:58:38;;;;;;;44.40;27.98;;;2.30;99.90;;;;;;2105722;28;20032;-73
2021/11/10 03:59:39;;;;;;;42.67;27.52;;;2.30;99.90;;;;;;2097825;28;20033;-73
2021/11/10 04:00:40;;;;;;;44.95;27.42;;;2.30;99.90;;;;;;2105661;28;20126;-73
2021/11/10 04:01:41;;;;;;;45.85;28.20;;;2.30;99.90;;;;;;2097809;28;20038;-73
2021/11/10 04:02:45;;;;;;;45.20;27.73;;;2.30;99.90;;;;;;2106230;28;20024;-73
2021/11/10 04:03:56;;;;;;;43.55;27.67;;;2.30;99.90;;;;;;2106441;28;20020;-73
2021/11/10 04:04:58;;;;;;;43.97;27.35;;;2.30;99.90;;;;;;2098211;28;20040;-73
2021/11/10 04:05:59;;;;;;;42.42;26.63;;;2.30;99.90;;;;;;2106521;28;20419;-75
2021/11/10 04:07:01;;;;;;;41.75;26.85;;;2.30;99.90;;;;;;2105998;28;20028;-72
2021/11/10 04:08:03;;;;;;;41.20;26.83;;;2.30;99.90;;;;;;2098189;28;20029;-73
2021/11/10 04:09:06;;;;;;;41.13;26.20;;;2.30;99.90;;;;;;2106713;28;20020;-73
2021/11/10 04:10:07;;;;;;;39.85;26.00;;;2.30;99.90;;;;;;2106414;28;20103;-73
2021/11/10 04:11:08;;;;;;;45.10;27.13;;;2.30;99.90;;;;;;2097375;28;20021;-73
2021/11/10 04:12:15;;;;;;;49.65;28.23;;;2.40;99.90;;;;;;2097418;28;20025;-72
2021/11/10 04:13:16;;;;;;;52.92;32.03;;;2.40;99.90;;;;;;2089985;28;20036;-73
2021/11/10 04:14:22;;;;;;;48.50;30.67;;;2.50;99.90;;;;;;2090323;28;20630;-73
2021/11/10 04:15:22;;;;;;;50.75;30.42;;;2.50;99.90;;;;;;2097669;28;20083;-73
2021/11/10 04:16:23;;;;;;;45.30;28.67;;;2.50;99.90;;;;;;2089168;28;20074;-73
2021/11/10 04:17:27;;;;;;;48.28;30.35;;;2.50;99.90;;;;;;2089806;28;20031;-73
2021/11/10 04:18:32;;;;;;;54.90;30.95;;;2.50;99.90;;;;;;2105855;28;20422;-73
2021/11/10 04:19:35;;;;;;;57.38;31.48;;;2.50;99.90;;;;;;2105851;28;20053;-73
2021/11/10 04:20:37;;;;;;;51.13;30.25;;;2.50;99.90;;;;;;2097318;28;20500;-73
2021/11/10 04:21:38;;;;;;;45.33;28.80;;;2.50;99.90;;;;;;2097373;28;20467;-73
2021/11/10 04:22:41;;;;;;;44.05;28.58;;;2.50;99.90;;;;;;2105942;28;20028;-73
2021/11/10 04:23:44;;;;;;;44.78;28.23;;;2.50;99.90;;;;;;2097616;28;20031;-73
2021/11/10 04:24:47;;;;;;;43.60;27.92;;;2.50;99.90;;;;;;2097799;28;20032;-73
2021/11/10 04:25:51;;;;;;;46.08;27.70;;;2.50;99.90;;;;;;2097841;28;20036;-73
2021/11/10 04:26:53;;;;;;;43.85;27.98;;;2.50;99.90;;;;;;2098115;28;20434;-73
2021/11/10 04:27:58;;;;;;;44.17;27.38;;;2.50;99.90;;;;;;2098465;28;20413;-73
2021/11/10 04:29:05;;;;;;;41.05;26.00;;;2.40;99.90;;;;;;2098606;28;20107;-73
2021/11/10 04:30:07;;;;;;;41.60;26.50;;;2.40;99.90;;;;;;2100189;28;20028;-73
2021/11/10 04:31:10;;;;;;;40.03;25.60;;;2.40;99.90;;;;;;2092017;28;20025;-74
2021/11/10 04:32:15;;;;;;;40.65;25.67;;;2.30;99.90;;;;;;2099805;28;20051;-73
2021/11/10 04:33:16;;;;;;;42.60;25.90;;;2.30;99.90;;;;;;2098629;28;20024;-73
2021/11/10 04:34:19;;;;;;;41.97;26.08;;;2.40;99.90;;;;;;2098551;28;20512;-74
2021/11/10 04:35:24;;;;;;;40.75;26.00;;;2.30;99.90;;;;;;2099928;28;20028;-73
2021/11/10 04:36:31;;;;;;;40.78;26.23;;;2.30;99.90;;;;;;2098585;28;20025;-73
2021/11/10 04:37:32;;;;;;;39.65;25.38;;;2.30;99.90;;;;;;2098262;28;20017;-74
2021/11/10 04:38:34;;;;;;;39.13;26.05;;;2.30;99.90;;;;;;2097973;28;20085;-74
2021/11/10 04:39:36;;;;;;;37.70;24.63;;;2.30;99.90;;;;;;2105752;28;20514;-74
2021/11/10 04:40:37;;;;;;;38.22;24.70;;;2.30;99.90;;;;;;2097034;28;20024;-73
2021/11/10 04:41:39;;;;;;;36.88;24.25;;;2.30;99.90;;;;;;2088876;28;20064;-73
2021/11/10 04:42:40;;;;;;;38.80;24.35;;;2.30;99.90;;;;;;2097238;28;20020;-73
2021/11/10 04:43:43;;;;;;;35.95;24.30;;;2.20;99.90;;;;;;2088227;28;20044;-73
2021/11/10 04:44:49;;;;;;;40.85;24.83;;;2.20;99.90;;;;;;2089039;28;20463;-73
2021/11/10 04:45:59;;;;;;;37.70;24.67;;;2.20;99.90;;;;;;2090739;28;20037;-73
2021/11/10 04:47:00;;;;;;;38.22;24.00;;;2.30;99.90;;;;;;2105426;28;20020;-73
2021/11/10 04:48:01;;;;;;;37.47;24.38;;;2.30;99.90;;;;;;2096999;28;20028;-73
2021/11/10 04:49:04;;;;;;;39.47;24.65;;;2.30;99.90;;;;;;2097278;28;20032;-74
2021/11/10 04:50:06;;;;;;;39.17;24.85;;;2.20;99.90;;;;;;2097633;28;20035;-73
2021/11/10 04:51:08;;;;;;;37.97;24.58;;;2.20;99.90;;;;;;2097107;28;20036;-74
2021/11/10 04:52:09;;;;;;;37.90;23.90;;;2.20;99.90;;;;;;2089146;28;20132;-73
2021/11/10 04:53:12;;;;;;;38.08;24.77;;;2.30;99.90;;;;;;2088994;28;20488;-73
2021/11/10 04:54:18;;;;;;;38.92;24.67;;;2.20;99.90;;;;;;2097384;28;20036;-74
2021/11/10 04:55:19;;;;;;;40.90;24.67;;;2.30;99.90;;;;;;2098081;28;20082;-74
2021/11/10 04:56:20;;;;;;;39.13;24.35;;;2.20;99.90;;;;;;2105710;28;20024;-73
2021/11/10 04:57:24;;;;;;;38.80;23.85;;;2.20;99.90;;;;;;2097446;28;20488;-74
2021/11/10 04:58:28;;;;;;;39.40;24.90;;;2.30;99.90;;;;;;2097316;28;20055;-73
2021/11/10 04:59:31;;;;;;;37.40;23.23;;;2.30;99.90;;;;;;2097078;28;20031;-73
2021/11/10 05:00:34;;;;;;;39.10;25.00;;;2.20;99.90;;;;;;2097168;28;20110;-73
2021/11/10 05:03:00;;;;;;;39.30;23.88;;;2.30;99.90;;;;;;2091373;28;20040;-73
2021/11/10 05:04:01;;;;;;;38.45;23.85;;;2.30;99.90;;;;;;2096208;28;20040;-74
2021/11/10 05:05:02;;;;;;;40.30;25.73;;;2.30;99.90;;;;;;2097465;28;20025;-73
2021/11/10 05:06:05;;;;;;;36.22;23.92;;;2.30;99.90;;;;;;2097643;28;20697;-73
2021/11/10 05:07:11;;;;;;;41.20;24.77;;;2.20;99.90;;;;;;2097268;28;20058;-73
2021/11/10 05:08:12;;;;;;;41.42;24.83;;;2.30;99.90;;;;;;2105889;28;20093;-73
2021/11/10 05:09:12;;;;;;;41.85;25.30;;;2.30;99.90;;;;;;2105649;28;20017;-73
2021/11/10 05:10:14;;;;;;;41.35;24.67;;;2.30;99.90;;;;;;2105606;28;20059;-73
2021/11/10 05:11:16;;;;;;;37.05;23.77;;;2.30;99.90;;;;;;2096994;28;20036;-72
2021/11/10 05:12:18;;;;;;;52.60;36.47;;;2.30;99.90;;;;;;2089142;28;20037;-73
2021/11/10 05:13:26;;;;;;;59.95;37.42;;;2.30;99.90;;;;;;2097970;28;20059;-74
2021/11/10 05:14:27;;;;;;;50.88;33.72;;;2.20;99.90;;;;;;2097355;28;20044;-73
2021/11/10 05:15:31;;;;;;;44.53;30.30;;;2.20;99.90;;;;;;2097296;28;20028;-73
2021/11/10 05:16:36;;;;;;;45.60;28.98;;;2.20;99.90;;;;;;2104989;28;20028;-73
2021/11/10 05:17:42;;;;;;;42.42;27.25;;;2.20;99.90;;;;;;2097588;28;20066;-72
2021/11/10 05:18:46;;;;;;;43.13;26.77;;;2.20;99.90;;;;;;2098118;28;20408;-74
2021/11/10 05:19:51;;;;;;;38.83;25.75;;;2.20;99.90;;;;;;2106102;28;20082;-74
2021/11/10 05:20:53;;;;;;;40.75;25.25;;;2.20;99.90;;;;;;2097496;28;20128;-74